Time;durP1;ratioP1;P1;durP2;ratioP2;P2;SDS_P1;SDS_P2;PMS_P1;PMS_P2;Temp;Humidity;BMP_temperature;BMP_pressure;BME280_temperature;BME280_humidity;BME280_pressure;Samples;Min_cycle;Max_cycle;Signal;HPM_P1;HPM_P2
2022/01/30 00:01:50;;;;;;;0.30;0.30;;;;;;;0.76;60.33;95816.97;5094495;28;20532;-54
2022/01/30 00:04:19;;;;;;;0.20;0.20;;;;;;;0.89;59.57;95815.19;5094502;28;20477;-54
2022/01/30 00:06:48;;;;;;;0.20;0.20;;;;;;;0.65;61.46;95815.72;5094796;28;20498;-54
2022/01/30 00:09:19;;;;;;;3.30;0.50;;;;;;;0.70;61.31;95813.31;5093724;28;20424;-54
2022/01/30 00:11:55;;;;;;;0.20;0.20;;;;;;;-0.22;60.42;95663.59;5094472;28;20506;-54
2022/01/30 00:14:28;;;;;;;0.20;0.20;;;;;;;0.74;60.87;95811.91;5094480;28;20424;-53
2022/01/30 00:17:03;;;;;;;0.20;0.20;;;;;;;0.35;62.85;95798.75;5094001;28;20428;-54
2022/01/30 00:19:37;;;;;;;0.20;0.20;;;;;;;0.15;63.35;95769.19;5092449;28;20471;-54
2022/01/30 00:22:18;;;;;;;0.20;0.20;;;;;;;0.44;61.42;95771.50;5093390;28;20471;-54
2022/01/30 00:24:53;;;;;;;0.20;0.20;;;;;;;0.46;61.04;95767.69;5094182;28;20421;-54
2022/01/30 00:27:29;;;;;;;0.20;0.20;;;;;;;0.44;62.47;95802.78;5093264;28;20480;-53
2022/01/30 00:29:59;;;;;;;0.40;0.40;;;;;;;-0.11;66.20;95803.72;5093801;28;20432;-54
2022/01/30 00:32:29;;;;;;;0.20;0.20;;;;;;;-0.09;63.73;95745.22;5094478;28;20457;-54
2022/01/30 00:35:18;;;;;;;0.20;0.20;;;;;;;0.53;61.77;95801.63;5093793;28;20525;-54
2022/01/30 00:37:48;;;;;;;0.20;0.20;;;;;;;0.23;62.23;95774.25;5093360;28;20989;-54
2022/01/30 00:40:35;;;;;;;0.20;0.20;;;;;;;0.42;62.41;95810.00;5092427;28;20496;-53
2022/01/30 00:43:07;;;;;;;0.30;0.20;;;;;;;0.27;63.41;95797.09;5094191;28;20440;-54
2022/01/30 00:45:37;;;;;;;0.40;0.40;;;;;;;0.46;61.95;95790.34;5093372;28;20428;-54
2022/01/30 00:48:06;;;;;;;0.20;0.20;;;;;;;0.66;60.57;95817.31;5093738;28;20438;-54
2022/01/30 00:50:35;;;;;;;0.30;0.30;;;;;;;0.59;60.20;95801.66;5093473;28;20474;-53
2022/01/30 00:53:04;;;;;;;0.20;0.20;;;;;;;0.44;60.92;95798.38;5093215;28;20482;-54
2022/01/30 00:55:34;;;;;;;0.30;0.20;;;;;;;-0.31;60.38;95630.91;5093970;28;20510;-54
2022/01/30 00:58:03;;;;;;;0.20;0.20;;;;;;;0.61;59.76;95767.53;5093739;28;20428;-54
2022/01/30 01:00:33;;;;;;;0.20;0.20;;;;;;;0.72;59.28;95780.00;5093737;28;20510;-53
2022/01/30 01:03:07;;;;;;;0.20;0.20;;;;;;;0.67;59.91;95771.97;5093328;28;20489;-53
2022/01/30 01:05:37;;;;;;;0.40;0.40;;;;;;;0.59;60.15;95769.53;5093725;28;20429;-54
2022/01/30 01:08:16;;;;;;;0.20;0.20;;;;;;;0.60;59.95;95760.72;5092437;28;20427;-54
2022/01/30 01:10:50;;;;;;;3.00;1.13;;;;;;;-0.81;59.17;95515.75;5093364;28;20425;-54
2022/01/30 01:24:24;;;;;;;0.20;0.20;;;;;;;0.35;60.76;95726.56;5093198;28;20893;-54
2022/01/30 01:26:53;;;;;;;0.20;0.20;;;;;;;0.44;60.29;95725.38;5093329;28;20452;-54
2022/01/30 01:29:21;;;;;;;0.37;0.37;;;;;;;0.37;60.09;95723.75;5093104;28;20745;-53
2022/01/30 01:31:50;;;;;;;0.20;0.20;;;;;;;0.28;60.20;95720.50;5092989;28;20793;-53
2022/01/30 01:34:30;;;;;;;0.20;0.10;;;;;;;0.36;59.82;95714.31;5092974;28;20485;-54
2022/01/30 01:36:59;;;;;;;0.20;0.20;;;;;;;0.46;59.50;95697.28;5093008;28;20852;-54
2022/01/30 01:39:29;;;;;;;0.30;0.20;;;;;;;0.41;59.81;95691.88;5092754;28;20468;-53
2022/01/30 01:41:57;;;;;;;0.20;0.10;;;;;;;0.21;60.66;95698.81;5092915;28;20424;-54
2022/01/30 01:44:34;;;;;;;0.20;0.10;;;;;;;0.28;60.82;95694.44;5092667;28;20519;-53
2022/01/30 01:47:02;;;;;;;0.20;0.20;;;;;;;0.19;61.38;95698.22;5092218;28;20436;-53
2022/01/30 01:49:34;;;;;;;0.20;0.20;;;;;;;0.22;60.95;95694.41;5091716;28;20860;-53
2022/01/30 01:52:18;;;;;;;0.20;0.20;;;;;;;0.06;61.75;95679.94;5092786;28;20420;-53
2022/01/30 01:54:48;;;;;;;0.30;0.20;;;;;;;-2.66;71.26;95439.28;5092006;28;20424;-53
2022/01/30 01:57:17;;;;;;;0.20;0.20;;;;;;;-0.66;70.22;95672.56;5092962;28;20828;-54
2022/01/30 01:59:46;;;;;;;0.30;0.30;;;;;;;-0.86;71.26;95663.03;5092119;28;20464;-53
2022/01/30 02:02:15;;;;;;;0.30;0.20;;;;;;;-1.01;74.30;95660.53;5092237;28;20481;-53
2022/01/30 02:04:46;;;;;;;0.30;0.27;;;;;;;-0.50;71.56;95661.03;5092183;28;20424;-53
2022/01/30 02:10:00;;;;;;;0.20;0.20;;;;;;;-0.50;69.45;95649.81;5089354;28;20479;-54
2022/01/30 02:12:35;;;;;;;0.30;0.30;;;;;;;-0.58;71.93;95658.59;5092030;28;20456;-53
2022/01/30 02:15:18;;;;;;;1.47;1.47;;;;;;;-0.45;71.09;95658.66;5092165;28;20466;-53
2022/01/30 02:26:13;;;;;;;0.20;0.20;;;;;;;-0.62;68.23;95639.16;5081556;28;20444;-53
2022/01/30 02:28:42;;;;;;;0.20;0.20;;;;;;;-0.57;67.34;95630.75;5091796;28;20483;-53
2022/01/30 02:31:13;;;;;;;0.20;0.20;;;;;;;-0.78;68.91;95644.66;5092082;28;20464;-53
2022/01/30 02:33:43;;;;;;;0.20;0.20;;;;;;;-1.09;68.20;95576.66;5092259;28;20553;-53
2022/01/30 02:36:11;;;;;;;0.20;0.20;;;;;;;-0.71;67.30;95645.53;5091231;28;20444;-53
2022/01/30 02:38:42;;;;;;;20.33;0.63;;;;;;;-0.70;66.69;95634.09;5092337;28;20448;-54
2022/01/30 02:41:10;;;;;;;0.20;0.20;;;;;;;-0.50;65.95;95655.84;5092175;28;20534;-53
2022/01/30 02:43:48;;;;;;;0.20;0.20;;;;;;;-0.50;65.56;95634.19;5091953;28;20425;-53
2022/01/30 02:46:26;;;;;;;0.47;0.47;;;;;;;-0.90;67.36;95615.78;5091524;28;20932;-53
2022/01/30 02:48:58;;;;;;;0.20;0.20;;;;;;;-0.67;65.95;95631.13;5091872;28;20471;-53
2022/01/30 02:51:33;;;;;;;0.20;0.20;;;;;;;-0.60;65.21;95639.75;5091900;28;20436;-53
2022/01/30 02:54:05;;;;;;;0.30;0.30;;;;;;;-0.75;67.00;95637.28;5091708;28;20795;-53
2022/01/30 02:56:36;;;;;;;0.30;0.20;;;;;;;-0.87;69.25;95636.22;5091907;28;20433;-53
2022/01/30 02:59:04;;;;;;;0.30;0.20;;;;;;;-0.63;67.87;95612.31;5091487;28;20490;-54
2022/01/30 03:01:33;;;;;;;0.20;0.20;;;;;;;-0.98;71.02;95633.31;5091744;28;20496;-53
2022/01/30 03:04:01;;;;;;;0.70;0.70;;;;;;;-0.82;68.48;95591.41;5091615;28;20419;-53
2022/01/30 03:06:30;;;;;;;3.03;0.80;;;;;;;-0.69;67.34;95607.91;5092111;28;20521;-53
2022/01/30 03:08:59;;;;;;;0.30;0.30;;;;;;;-0.74;67.17;95604.25;5091109;28;20515;-53
2022/01/30 03:11:28;;;;;;;0.20;0.10;;;;;;;-0.73;67.63;95595.44;5092111;28;20448;-53
2022/01/30 03:13:57;;;;;;;0.20;0.20;;;;;;;-0.81;68.06;95590.41;5091549;28;20467;-53
2022/01/30 03:16:25;;;;;;;0.20;0.10;;;;;;;-0.83;69.01;95644.44;5091468;28;20928;-53
2022/01/30 03:18:54;;;;;;;0.20;0.10;;;;;;;-0.77;67.91;95578.63;5091927;28;20861;-53
2022/01/30 03:21:23;;;;;;;0.20;0.20;;;;;;;-0.95;68.05;95553.13;5090957;28;21030;-54
2022/01/30 03:23:51;;;;;;;0.40;0.40;;;;;;;-0.88;67.68;95582.56;5090747;28;20416;-53
2022/01/30 03:26:20;;;;;;;0.20;0.20;;;;;;;-0.92;67.60;95581.34;5090863;28;20463;-54
2022/01/30 03:28:52;;;;;;;0.20;0.20;;;;;;;-0.84;68.18;95588.19;5091517;28;20424;-53
2022/01/30 03:31:21;;;;;;;0.20;0.10;;;;;;;-1.22;69.86;95611.16;5093669;28;20424;-53
2022/01/30 03:33:50;;;;;;;0.30;0.30;;;;;;;-1.14;70.68;95592.03;5095300;28;20430;-53
2022/01/30 03:36:18;;;;;;;0.20;0.20;;;;;;;-1.14;69.94;95561.63;5095632;28;20455;-53
2022/01/30 03:38:46;;;;;;;0.20;0.20;;;;;;;-0.93;68.99;95573.72;5095071;28;20489;-53
2022/01/30 03:41:15;;;;;;;0.20;0.20;;;;;;;-0.95;67.81;95562.72;5094945;28;20889;-54
2022/01/30 03:43:44;;;;;;;1.23;1.23;;;;;;;-0.70;66.32;95590.66;5095027;28;20433;-53
2022/01/30 03:46:14;;;;;;;0.30;0.30;;;;;;;-0.82;67.03;95578.41;5094964;28;20519;-53
2022/01/30 03:48:43;;;;;;;0.20;0.20;;;;;;;-0.75;66.49;95574.03;5094551;28;20927;-54
2022/01/30 03:51:11;;;;;;;0.20;0.20;;;;;;;-1.02;67.83;95560.09;5094387;28;20432;-54
2022/01/30 03:53:40;;;;;;;0.20;0.20;;;;;;;-1.07;68.85;95551.25;5094613;28;20471;-53
2022/01/30 03:56:09;;;;;;;1.40;1.40;;;;;;;-1.72;72.15;95541.22;5094737;28;20424;-53
2022/01/30 03:58:38;;;;;;;0.30;0.27;;;;;;;-2.05;78.41;95552.09;5094448;28;20456;-53
2022/01/30 04:01:07;;;;;;;0.20;0.20;;;;;;;-1.64;77.13;95554.84;5094535;28;20496;-53
2022/01/30 04:03:37;;;;;;;0.20;0.20;;;;;;;-1.73;76.92;95524.81;5094530;28;20940;-53
2022/01/30 04:06:07;;;;;;;0.20;0.20;;;;;;;-1.65;76.07;95524.69;5094532;28;20489;-53
2022/01/30 04:08:36;;;;;;;0.30;0.30;;;;;;;-1.46;74.42;95528.38;5094737;28;20485;-53
2022/01/30 04:11:04;;;;;;;0.20;0.20;;;;;;;-2.97;72.18;95265.06;5094383;28;20471;-53
2022/01/30 04:13:33;;;;;;;0.20;0.10;;;;;;;-1.18;70.74;95538.75;5093989;28;20682;-53
2022/01/30 04:16:02;;;;;;;1.50;1.50;;;;;;;-1.10;68.89;95525.63;5093457;28;20501;-53
2022/01/30 04:18:31;;;;;;;0.20;0.20;;;;;;;-1.09;69.14;95529.84;5094636;28;20424;-54
2022/01/30 04:21:01;;;;;;;0.20;0.20;;;;;;;-1.02;69.64;95541.06;5094111;28;20908;-53
2022/01/30 04:23:32;;;;;;;0.23;0.20;;;;;;;-1.32;68.72;95501.50;5093604;28;20424;-53
2022/01/30 04:26:00;;;;;;;0.20;0.20;;;;;;;-1.11;69.21;95543.00;5094180;28;20420;-53
2022/01/30 04:28:29;;;;;;;0.20;0.20;;;;;;;-2.30;69.67;95358.78;5094367;28;20432;-53
2022/01/30 04:30:58;;;;;;;0.20;0.20;;;;;;;-1.09;68.84;95554.06;5093526;28;20416;-53
2022/01/30 04:33:27;;;;;;;0.20;0.13;;;;;;;-1.42;69.60;95527.03;5093962;28;20493;-53
2022/01/30 04:35:57;;;;;;;0.20;0.20;;;;;;;-2.51;76.60;95469.59;5093898;28;20901;-53
2022/01/30 04:38:33;;;;;;;0.20;0.20;;;;;;;-2.38;81.39;95550.97;5093847;28;20940;-53
2022/01/30 04:52:24;;;;;;;0.20;0.20;;;;;;;-2.25;80.47;95498.41;5093358;28;20955;-53
2022/01/30 04:57:54;;;;;;;1.80;1.33;;;;;;;-1.98;80.14;95562.56;5093401;28;20425;-53
2022/01/30 05:03:27;;;;;;;0.20;0.20;;;;;;;-3.25;78.91;95417.13;5089184;28;20960;-52
2022/01/30 05:06:03;;;;;;;0.20;0.10;;;;;;;-2.03;78.16;95565.72;5093135;28;20440;-53
2022/01/30 05:08:32;;;;;;;0.20;0.20;;;;;;;-1.94;76.97;95587.97;5093099;28;20486;-53
2022/01/30 05:11:06;;;;;;;0.20;0.20;;;;;;;-1.75;75.35;95580.53;5092950;28;20421;-53
2022/01/30 05:13:38;;;;;;;0.30;0.27;;;;;;;-1.80;74.53;95581.13;5092727;28;20461;-53
2022/01/30 05:16:08;;;;;;;0.20;0.20;;;;;;;-1.77;74.77;95579.94;5092255;28;20462;-53
2022/01/30 05:18:37;;;;;;;0.20;0.10;;;;;;;-1.74;74.00;95590.75;5093213;28;20425;-53
2022/01/30 05:21:06;;;;;;;0.20;0.20;;;;;;;-1.72;74.21;95593.16;5092581;28;20502;-53
2022/01/30 05:23:35;;;;;;;0.20;0.20;;;;;;;-1.81;74.12;95595.06;5092107;28;20433;-53
2022/01/30 05:26:08;;;;;;;0.20;0.17;;;;;;;-2.11;76.25;95534.69;5093089;28;20452;-53
2022/01/30 05:28:37;;;;;;;0.20;0.20;;;;;;;-1.22;74.06;95595.56;5092494;28;20542;-53
2022/01/30 05:31:06;;;;;;;0.30;0.30;;;;;;;-0.96;71.00;95580.09;5092708;28;20428;-51
2022/01/30 05:33:35;;;;;;;0.60;0.60;;;;;;;-1.04;68.10;95588.09;5092563;28;20939;-52
2022/01/30 05:36:05;;;;;;;0.20;0.20;;;;;;;-0.99;69.76;95590.91;5092767;28;20464;-52
2022/01/30 05:38:33;;;;;;;0.20;0.17;;;;;;;-0.62;68.64;95579.28;5092816;28;20424;-52
2022/01/30 05:41:05;;;;;;;0.20;0.20;;;;;;;-1.20;66.60;95509.56;5092821;28;20424;-52
2022/01/30 05:43:34;;;;;;;0.40;0.40;;;;;;;-0.55;71.16;95561.09;5091867;28;20460;-52
2022/01/30 05:46:11;;;;;;;0.20;0.20;;;;;;;-0.55;67.02;95556.69;5092378;28;20421;-52
2022/01/30 05:48:40;;;;;;;3.40;1.70;;;;;;;-0.42;68.65;95543.72;5091845;28;21210;-52
2022/01/30 05:51:09;;;;;;;0.20;0.20;;;;;;;-0.29;66.15;95538.56;5092558;28;20436;-53
2022/01/30 05:53:37;;;;;;;0.30;0.30;;;;;;;-0.38;66.00;95533.75;5091933;28;20463;-53
2022/01/30 05:56:11;;;;;;;0.20;0.20;;;;;;;-0.41;64.56;95518.50;5092215;28;20464;-53
2022/01/30 05:58:40;;;;;;;0.20;0.10;;;;;;;-0.83;64.53;95499.53;5092632;28;20811;-53
2022/01/30 06:01:08;;;;;;;0.20;0.13;;;;;;;-0.92;69.45;95524.13;5092544;28;20467;-53
2022/01/30 06:03:37;;;;;;;0.53;0.50;;;;;;;-1.95;73.44;95494.66;5092232;28;20515;-53
2022/01/30 06:06:08;;;;;;;14.40;2.17;;;;;;;-2.22;79.56;95505.78;5092097;28;20974;-53
2022/01/30 06:08:42;;;;;;;0.63;0.63;;;;;;;-2.14;81.84;95511.66;5092496;28;20488;-53
2022/01/30 06:11:13;;;;;;;0.20;0.20;;;;;;;-2.84;82.76;95388.84;5092254;28;20500;-53
2022/01/30 06:13:41;;;;;;;0.30;0.23;;;;;;;-2.09;81.87;95490.34;5091889;28;20508;-53
2022/01/30 06:16:10;;;;;;;0.20;0.20;;;;;;;-1.76;80.81;95519.97;5092400;28;20444;-53
2022/01/30 06:18:39;;;;;;;1.80;0.93;;;;;;;-1.76;78.67;95517.38;5092084;28;20920;-54
2022/01/30 06:21:08;;;;;;;0.20;0.20;;;;;;;-1.85;78.90;95507.31;5091983;28;20474;-53
2022/01/30 06:23:40;;;;;;;1.33;1.23;;;;;;;-2.28;79.05;95452.03;5092291;28;20417;-53
2022/01/30 06:26:09;;;;;;;0.40;0.40;;;;;;;-1.80;81.12;95515.34;5091264;28;20475;-53
2022/01/30 06:28:39;;;;;;;0.40;0.40;;;;;;;-1.48;76.39;95445.41;5091967;28;20463;-53
2022/01/30 06:31:08;;;;;;;2.60;2.50;;;;;;;-0.73;71.86;95491.34;5091793;28;20422;-54
2022/01/30 06:33:37;;;;;;;0.23;0.20;;;;;;;-0.69;71.92;95476.97;5091978;28;20420;-53
2022/01/30 06:36:16;;;;;;;0.20;0.20;;;;;;;-0.29;68.60;95460.44;5090339;28;20440;-53
2022/01/30 06:38:44;;;;;;;3.83;1.60;;;;;;;-0.47;68.28;95467.19;5092172;28;20477;-53
2022/01/30 06:41:13;;;;;;;0.20;0.17;;;;;;;-1.26;66.41;95265.94;5091771;28;20428;-53
2022/01/30 06:43:43;;;;;;;0.80;0.80;;;;;;;0.71;62.51;95460.16;5092045;28;20547;-53
2022/01/30 06:46:15;;;;;;;0.63;0.63;;;;;;;1.04;60.94;95457.44;5091756;28;20967;-53
2022/01/30 06:48:44;;;;;;;0.30;0.20;;;;;;;1.12;59.50;95462.44;5091371;28;21061;-54
2022/01/30 06:51:12;;;;;;;12.30;1.50;;;;;;;1.29;57.71;95433.03;5091877;28;20475;-54
2022/01/30 06:53:41;;;;;;;0.53;0.50;;;;;;;1.85;56.03;95472.31;5091720;28;20936;-54
2022/01/30 06:56:10;;;;;;;0.30;0.30;;;;;;;1.92;54.68;95459.22;5091710;28;20420;-54
2022/01/30 06:58:38;;;;;;;0.60;0.60;;;;;;;3.11;53.33;95478.03;5091326;28;20436;-53
2022/01/30 07:01:08;;;;;;;4.43;3.40;;;;;;;2.87;50.97;95471.84;5091150;28;20944;-53
2022/01/30 07:03:36;;;;;;;1.33;0.73;;;;;;;3.42;49.07;95450.84;5091794;28;20464;-53
2022/01/30 07:06:05;;;;;;;1.60;1.60;;;;;;;3.92;49.00;95478.41;5092806;28;20421;-53
2022/01/30 07:08:33;;;;;;;0.90;0.90;;;;;;;3.44;48.08;95501.22;5095879;28;20456;-53
2022/01/30 07:11:02;;;;;;;1.70;1.70;;;;;;;3.36;48.19;95499.72;5095224;28;20512;-53
2022/01/30 07:13:30;;;;;;;1.43;1.43;;;;;;;4.54;46.42;95495.41;5095252;28;20448;-52
2022/01/30 07:15:59;;;;;;;5.47;2.00;;;;;;;4.94;44.22;95487.63;5094599;28;20486;-52
2022/01/30 07:18:28;;;;;;;0.80;0.80;;;;;;;4.95;44.53;95490.03;5095258;28;20435;-52
2022/01/30 07:20:57;;;;;;;1.10;1.10;;;;;;;5.43;43.00;95470.53;5095402;28;20933;-51
2022/01/30 07:23:26;;;;;;;0.87;0.87;;;;;;;3.41;43.39;95226.59;5095269;28;20468;-51
2022/01/30 07:26:14;;;;;;;0.93;0.93;;;;;;;5.60;42.95;95469.56;5094735;28;20456;-51
2022/01/30 07:28:43;;;;;;;3.10;3.00;;;;;;;4.28;42.36;95259.69;5095337;28;20475;-51
2022/01/30 07:31:11;;;;;;;0.70;0.70;;;;;;;5.75;42.20;95474.31;5095189;28;20466;-50
2022/01/30 07:33:41;;;;;;;1.00;0.73;;;;;;;5.82;41.83;95474.19;5095134;28;20428;-50
2022/01/30 07:36:10;;;;;;;5.53;2.30;;;;;;;6.26;41.36;95470.75;5095446;28;20527;-50
2022/01/30 07:38:38;;;;;;;0.53;0.53;;;;;;;6.99;40.36;95467.91;5094974;28;20936;-50
2022/01/30 07:41:08;;;;;;;10.80;1.03;;;;;;;7.44;38.88;95470.34;5095313;28;20424;-50
2022/01/30 07:43:36;;;;;;;2.10;1.17;;;;;;;7.34;40.26;95473.66;5094898;28;20572;-50
2022/01/30 07:46:06;;;;;;;8.23;2.03;;;;;;;7.53;38.65;95469.69;5094452;28;20460;-50
2022/01/30 07:48:34;;;;;;;2.30;2.20;;;;;;;8.59;36.71;95454.91;5094585;28;20475;-50
2022/01/30 07:51:05;;;;;;;2.80;2.60;;;;;;;7.96;36.47;95454.84;5094519;28;20432;-50
2022/01/30 07:53:34;;;;;;;1.57;1.57;;;;;;;7.48;37.85;95469.63;5095105;28;20412;-51
2022/01/30 07:56:03;;;;;;;0.90;0.90;;;;;;;6.95;37.82;95445.75;5094652;28;20440;-51
2022/01/30 07:58:31;;;;;;;0.93;0.90;;;;;;;6.80;38.55;95463.97;5094707;28;20420;-51
2022/01/30 08:01:00;;;;;;;2.43;2.23;;;;;;;7.05;38.50;95461.69;5094945;28;20456;-51
2022/01/30 08:03:28;;;;;;;1.03;1.03;;;;;;;7.83;38.16;95452.59;5094483;28;20464;-51
2022/01/30 08:05:57;;;;;;;1.33;1.33;;;;;;;7.30;37.25;95451.47;5094401;28;20963;-51
2022/01/30 08:08:28;;;;;;;5.40;1.40;;;;;;;6.55;39.87;95459.13;5094419;28;20485;-52
2022/01/30 08:10:56;;;;;;;1.00;1.00;;;;;;;7.14;38.49;95452.31;5094231;28;20478;-50
2022/01/30 08:13:24;;;;;;;1.13;1.13;;;;;;;7.77;37.03;95445.69;5094053;28;20456;-50
2022/01/30 08:15:53;;;;;;;1.03;1.03;;;;;;;7.10;38.20;95464.41;5094236;28;20928;-50
2022/01/30 08:18:21;;;;;;;0.70;0.70;;;;;;;7.04;38.40;95462.72;5094124;28;20451;-51
2022/01/30 08:20:49;;;;;;;0.60;0.53;;;;;;;7.35;37.21;95462.09;5094243;28;20980;-51
2022/01/30 08:23:19;;;;;;;1.17;1.07;;;;;;;6.65;38.35;95450.59;5094409;28;20509;-51
2022/01/30 08:25:48;;;;;;;0.50;0.50;;;;;;;6.33;38.89;95445.88;5094147;28;20443;-52
2022/01/30 08:28:17;;;;;;;1.47;1.43;;;;;;;5.75;39.33;95414.63;5094391;28;20432;-52
2022/01/30 08:30:45;;;;;;;2.50;0.83;;;;;;;5.53;40.51;95429.47;5094187;28;20425;-51
2022/01/30 08:33:16;;;;;;;1.90;1.63;;;;;;;4.56;43.39;95427.72;5094447;28;20442;-52
2022/01/30 08:35:44;;;;;;;2.40;2.30;;;;;;;4.01;45.30;95429.03;5093844;28;20929;-52
2022/01/30 08:38:16;;;;;;;0.93;0.93;;;;;;;4.12;45.18;95420.41;5093162;28;20490;-53
2022/01/30 08:40:44;;;;;;;0.70;0.70;;;;;;;4.06;44.60;95411.63;5094239;28;20485;-53
2022/01/30 08:43:15;;;;;;;1.03;1.03;;;;;;;3.61;46.57;95407.88;5093779;28;20460;-53
2022/01/30 08:45:43;;;;;;;0.30;0.20;;;;;;;3.61;47.94;95400.00;5093729;28;20478;-53
2022/01/30 08:48:12;;;;;;;0.43;0.30;;;;;;;2.45;54.33;95399.44;5093613;28;20856;-52
2022/01/30 08:50:40;;;;;;;0.30;0.30;;;;;;;3.06;56.12;95394.88;5093412;28;20473;-52
2022/01/30 08:53:15;;;;;;;0.90;0.90;;;;;;;4.63;50.69;95389.03;5093867;28;20473;-52
2022/01/30 08:55:44;;;;;;;1.60;1.13;;;;;;;5.33;47.81;95387.03;5093896;28;20789;-51
2022/01/30 08:58:14;;;;;;;0.50;0.50;;;;;;;5.76;47.89;95387.31;5093445;28;20432;-51
2022/01/30 09:00:44;;;;;;;0.73;0.50;;;;;;;7.28;44.49;95402.69;5093378;28;20467;-51
2022/01/30 09:03:14;;;;;;;0.80;0.80;;;;;;;8.48;40.79;95426.00;5092982;28;20464;-51
2022/01/30 09:05:43;;;;;;;0.97;0.97;;;;;;;8.33;38.82;95431.97;5093088;28;20936;-51
2022/01/30 09:08:13;;;;;;;0.93;0.57;;;;;;;8.90;38.50;95408.34;5093101;28;20925;-52
2022/01/30 09:10:42;;;;;;;2.93;2.77;;;;;;;8.28;39.28;95416.09;5093452;28;20499;-52
2022/01/30 09:13:10;;;;;;;0.40;0.30;;;;;;;8.81;38.41;95397.44;5093284;28;20920;-52
2022/01/30 09:15:42;;;;;;;11.33;0.90;;;;;;;8.55;39.02;95390.41;5093395;28;20829;-52
2022/01/30 09:18:13;;;;;;;0.50;0.47;;;;;;;8.72;38.38;95326.84;5093232;28;20428;-52
2022/01/30 09:20:43;;;;;;;0.90;0.50;;;;;;;9.09;37.69;95371.66;5093071;28;20474;-53
2022/01/30 09:23:13;;;;;;;0.90;0.77;;;;;;;9.92;36.11;95370.56;5093281;28;20460;-54
2022/01/30 09:26:03;;;;;;;4.13;1.80;;;;;;;10.25;35.37;95382.53;5092752;28;20440;-56
2022/01/30 09:28:31;;;;;;;1.27;1.17;;;;;;;10.43;34.90;95374.84;5092272;28;20444;-57
2022/01/30 09:31:01;;;;;;;3.33;0.67;;;;;;;11.55;33.08;95354.09;5092816;28;20425;-59
2022/01/30 09:33:30;;;;;;;1.10;1.10;;;;;;;11.31;34.08;95348.63;5092674;28;20429;-58
2022/01/30 09:35:58;;;;;;;3.17;2.13;;;;;;;10.23;35.29;95344.91;5092739;28;20435;-58
2022/01/30 09:38:26;;;;;;;0.67;0.67;;;;;;;10.54;33.57;95349.94;5092699;28;20425;-57
2022/01/30 09:40:57;;;;;;;1.40;1.40;;;;;;;11.37;33.61;95340.38;5092750;28;20468;-57
2022/01/30 09:43:27;;;;;;;0.93;0.90;;;;;;;11.28;32.55;95334.03;5092883;28;20456;-57
2022/01/30 09:45:58;;;;;;;2.00;1.90;;;;;;;11.51;32.32;95324.63;5092521;28;20516;-56
2022/01/30 09:48:28;;;;;;;1.23;1.13;;;;;;;11.99;30.99;95307.09;5092404;28;21031;-55
2022/01/30 09:50:59;;;;;;;0.80;0.73;;;;;;;12.71;29.64;95271.56;5092434;28;20445;-55
2022/01/30 09:53:28;;;;;;;0.80;0.80;;;;;;;12.25;29.95;95289.84;5092410;28;20459;-55
2022/01/30 09:55:56;;;;;;;1.30;0.60;;;;;;;13.48;28.98;95297.00;5092759;28;20921;-54
2022/01/30 09:58:25;;;;;;;1.63;1.40;;;;;;;12.57;29.69;95297.28;5092617;28;20459;-54
2022/01/30 10:00:56;;;;;;;0.67;0.50;;;;;;;12.81;29.81;95287.41;5092472;28;20425;-54
2022/01/30 10:03:26;;;;;;;1.23;1.07;;;;;;;13.26;28.88;95280.78;5092494;28;20515;-54
2022/01/30 10:06:08;;;;;;;0.77;0.77;;;;;;;14.70;27.33;95269.94;5092326;28;20417;-54
2022/01/30 10:08:42;;;;;;;1.73;1.40;;;;;;;14.29;26.82;95274.44;5092123;28;20440;-54
2022/01/30 10:11:29;;;;;;;0.60;0.60;;;;;;;14.55;26.48;95263.03;5091950;28;20481;-54
2022/01/30 10:14:08;;;;;;;2.53;0.70;;;;;;;14.73;26.65;95257.91;5092544;28;20878;-54
2022/01/30 10:16:41;;;;;;;1.27;0.40;;;;;;;16.61;24.67;95248.81;5092210;28;20431;-54
2022/01/30 10:19:11;;;;;;;3.90;0.93;;;;;;;15.97;23.85;95247.47;5092560;28;20505;-55
2022/01/30 10:21:42;;;;;;;1.57;0.87;;;;;;;15.15;24.99;95237.00;5091984;28;20486;-54
2022/01/30 10:24:24;;;;;;;2.63;0.80;;;;;;;15.11;24.88;95225.38;5091913;28;20533;-54
2022/01/30 10:26:55;;;;;;;0.70;0.70;;;;;;;15.86;24.93;95190.03;5092253;28;20537;-54
2022/01/30 10:29:25;;;;;;;0.40;0.30;;;;;;;15.00;24.61;95232.00;5091977;28;20428;-53
2022/01/30 10:32:06;;;;;;;1.83;0.60;;;;;;;15.37;24.32;95236.28;5091759;28;20421;-53
2022/01/30 10:34:36;;;;;;;0.40;0.30;;;;;;;16.42;23.08;95234.84;5092083;28;20501;-53
2022/01/30 10:37:18;;;;;;;0.67;0.67;;;;;;;16.49;23.31;95205.78;5091827;28;20963;-54
2022/01/30 10:39:58;;;;;;;0.40;0.40;;;;;;;17.78;22.03;95204.16;5091577;28;20428;-54
2022/01/30 10:42:35;;;;;;;0.63;0.63;;;;;;;18.25;21.82;95196.97;5096067;28;20455;-54
2022/01/30 10:45:06;;;;;;;0.93;0.87;;;;;;;17.51;22.78;95186.47;5095911;28;20476;-53
2022/01/30 10:47:36;;;;;;;2.70;0.90;;;;;;;17.64;21.79;95174.03;5095974;28;20477;-53
2022/01/30 10:50:17;;;;;;;0.60;0.47;;;;;;;18.39;20.91;95160.00;5095757;28;20467;-54
2022/01/30 10:52:55;;;;;;;0.90;0.90;;;;;;;18.62;20.87;95164.03;5096124;28;20412;-53
2022/01/30 10:55:41;;;;;;;4.80;4.53;;;;;;;16.29;22.01;95168.88;5096039;28;20448;-54
2022/01/30 10:58:15;;;;;;;2.63;1.00;;;;;;;16.79;21.77;95164.81;5096247;28;20797;-54
2022/01/30 11:00:49;;;;;;;2.70;1.17;;;;;;;17.17;22.58;95157.00;5095594;28;20455;-55
2022/01/30 11:03:39;;;;;;;3.57;2.13;;;;;;;17.49;21.96;95156.53;5095908;28;20485;-55
2022/01/30 11:06:11;;;;;;;1.03;0.93;;;;;;;16.73;21.77;95154.56;5095582;28;20951;-54
2022/01/30 11:08:44;;;;;;;0.90;0.90;;;;;;;17.50;21.47;95154.66;5095462;28;20424;-55
2022/01/30 11:11:25;;;;;;;0.50;0.50;;;;;;;16.97;21.87;95161.09;5095268;28;20470;-55
2022/01/30 11:14:14;;;;;;;1.50;0.50;;;;;;;16.32;22.02;95112.88;5095585;28;20421;-55
2022/01/30 11:17:05;;;;;;;2.20;1.07;;;;;;;17.14;21.65;95152.28;5095213;28;21020;-54
2022/01/30 11:19:35;;;;;;;1.00;1.00;;;;;;;14.56;23.54;95130.47;5095281;28;20459;-54
2022/01/30 11:22:06;;;;;;;0.53;0.53;;;;;;;15.28;23.51;95110.69;5095098;28;20474;-54
2022/01/30 11:24:48;;;;;;;2.40;0.60;;;;;;;17.58;21.67;95113.69;5095520;28;20494;-54
2022/01/30 11:27:17;;;;;;;0.63;0.53;;;;;;;19.07;20.13;95105.16;5095369;28;20822;-54
2022/01/30 11:29:48;;;;;;;0.93;0.93;;;;;;;16.57;21.08;95017.75;5095252;28;20412;-55
2022/01/30 11:32:18;;;;;;;0.77;0.77;;;;;;;15.98;21.20;95066.50;5094835;28;20997;-55
2022/01/30 11:34:53;;;;;;;0.97;0.70;;;;;;;16.76;20.52;95062.94;5095471;28;20473;-55
2022/01/30 11:37:27;;;;;;;0.80;0.80;;;;;;;17.13;20.33;95046.25;5095619;28;20463;-55
2022/01/30 11:39:57;;;;;;;0.50;0.50;;;;;;;16.95;19.92;95045.47;5095114;28;20884;-54
2022/01/30 11:42:27;;;;;;;1.33;0.83;;;;;;;16.85;20.12;95043.09;5094966;28;20875;-55
2022/01/30 11:45:21;;;;;;;0.97;0.90;;;;;;;16.84;20.63;95027.38;5094879;28;20979;-54
2022/01/30 11:48:13;;;;;;;0.60;0.60;;;;;;;15.65;22.36;95013.41;5094935;28;20428;-54
2022/01/30 11:50:43;;;;;;;0.63;0.63;;;;;;;16.21;22.26;95011.84;5094055;28;20427;-54
2022/01/30 11:53:13;;;;;;;0.53;0.40;;;;;;;17.76;20.85;94990.00;5094737;28;20432;-55
2022/01/30 11:55:54;;;;;;;0.77;0.77;;;;;;;18.06;20.07;94987.38;5094905;28;20416;-55
2022/01/30 11:58:43;;;;;;;0.40;0.30;;;;;;;19.20;19.10;94987.81;5094333;28;20799;-56
2022/01/30 12:01:35;;;;;;;0.80;0.80;;;;;;;18.84;19.57;94994.59;5094566;28;20478;-54
2022/01/30 12:04:16;;;;;;;5.20;1.10;;;;;;;17.05;20.94;95001.53;5094410;28;20954;-55
2022/01/30 12:06:50;;;;;;;0.50;0.50;;;;;;;16.61;21.31;94996.50;5094696;28;20485;-54
2022/01/30 12:09:29;;;;;;;0.83;0.83;;;;;;;17.38;21.27;94989.16;5094527;28;20484;-55
2022/01/30 12:12:09;;;;;;;1.67;0.80;;;;;;;17.64;21.08;94994.47;5094390;28;20932;-54
2022/01/30 12:14:58;;;;;;;0.60;0.50;;;;;;;17.66;20.54;94990.38;5094719;28;20440;-54
2022/01/30 12:17:50;;;;;;;0.50;0.50;;;;;;;16.33;21.55;94937.13;5094271;28;20485;-54
2022/01/30 12:20:22;;;;;;;0.50;0.47;;;;;;;15.52;23.15;94934.16;5094268;28;20436;-55
2022/01/30 12:22:52;;;;;;;3.70;1.23;;;;;;;16.37;22.35;94978.19;5094497;28;20494;-55
2022/01/30 12:25:25;;;;;;;0.70;0.50;;;;;;;17.35;20.99;94869.28;5094109;28;20471;-54
2022/01/30 12:27:56;;;;;;;0.83;0.50;;;;;;;18.43;20.49;94962.34;5093992;28;20456;-54
2022/01/30 12:30:33;;;;;;;0.50;0.50;;;;;;;19.21;19.93;94951.75;5094063;28;20428;-54
2022/01/30 12:33:02;;;;;;;0.33;0.23;;;;;;;19.60;18.96;94870.53;5093835;28;20485;-54
2022/01/30 12:35:30;;;;;;;0.60;0.53;;;;;;;18.89;19.56;94946.06;5094418;28;20477;-54
2022/01/30 12:37:59;;;;;;;0.40;0.20;;;;;;;18.12;20.06;94937.78;5093922;28;20487;-54